48NY weather

Turnbull Airport
Bloomfield, New York, United States

Public forecast

Using degrees Fahrenheit for public forecast. Weather courtesy of forecast.io.

Closest aviation weather report (METAR) to Turnbull Airport

Closest report is Greater Rochester International Airport, 18.1 nm (33.4 km) NW. Retrieved 2019/11/18 11:54 UTC (1 hour ago):

KROC 181154Z 13006KT 10SM FEW150 BKN180 BKN250 M01/M02 A2989 RMK AO2 SLP131 4/003 T10061022 10011 21011 58005

Closest aviation forecast (TAF) to Turnbull Airport

Closest forecast is Greater Rochester International Airport, 18.1 nm (33.4 km) NW. Retrieved 2019/11/18 12:24 UTC (46 minutes ago):

TAF KROC 181121Z 1812/1912 14005KT P6SM BKN150 FM182200 04004KT P6SM OVC050 FM190400 00000KT P6SM OVC030 FM190900 00000KT P6SM OVC015